Time,TemperatureF,DewpointF,PressureIn,WindDirection,WindDirectionDegrees,WindSpeedMPH,WindSpeedGustMPH,Humidity,HourlyPrecipIn,Conditions,Clouds,dailyrainin,SoftwareType,DateUTC
2013-04-03 00:03:00,32.0,-99.9,-100.00,WNW,299,6.0,11.0,-999,-99.99,,,-99.99,,2013-04-03 05:03:00,
2013-04-03 00:13:00,32.0,-99.9,30.31,WNW,299,6.0,11.0,-999,-99.99,,,-99.99,,2013-04-03 05:13:00,
2013-04-03 00:23:00,32.0,-99.9,30.31,WNW,299,6.0,11.0,-999,-99.99,,,-99.99,,2013-04-03 05:23:00,
2013-04-03 00:33:00,32.0,-99.9,30.31,WNW,299,6.0,11.0,-999,-99.99,,,-99.99,,2013-04-03 05:33:00,
2013-04-03 00:40:00,31.0,-99.9,30.31,WNW,298,6.0,10.0,-999,-99.99,,,-99.99,,2013-04-03 05:40:00,
2013-04-03 01:03:00,31.0,-99.9,-100.00,WNW,298,6.0,10.0,-999,-99.99,,,-99.99,,2013-04-03 06:03:00,
2013-04-03 01:12:00,31.0,-99.9,30.31,WNW,298,6.0,10.0,-999,-99.99,,,-99.99,,2013-04-03 06:12:00,
2013-04-03 01:22:00,31.0,-99.9,30.31,WNW,298,6.0,10.0,-999,-99.99,,,-99.99,,2013-04-03 06:22:00,
2013-04-03 01:32:00,31.0,-99.9,30.31,WNW,298,6.0,10.0,-999,-99.99,,,-99.99,,2013-04-03 06:32:00,
2013-04-03 01:40:00,31.0,-99.9,30.33,NW,313,7.0,12.0,-999,-99.99,,,-99.99,,2013-04-03 06:40:00,
2013-04-03 02:03:00,31.0,-99.9,-100.00,NW,313,7.0,12.0,-999,-99.99,,,-99.99,,2013-04-03 07:03:00,
2013-04-03 02:12:00,31.0,-99.9,30.33,NW,313,7.0,12.0,-999,-99.99,,,-99.99,,2013-04-03 07:12:00,
2013-04-03 02:23:00,31.0,-99.9,30.33,NW,313,7.0,12.0,-999,-99.99,,,-99.99,,2013-04-03 07:23:00,
2013-04-03 02:33:00,31.0,-99.9,30.33,NW,313,7.0,12.0,-999,-99.99,,,-99.99,,2013-04-03 07:33:00,
2013-04-03 02:40:00,29.0,-99.9,30.34,NW,306,4.0,9.0,-999,-99.99,,,-99.99,,2013-04-03 07:40:00,
2013-04-03 03:04:00,29.0,-99.9,-100.00,NW,306,4.0,9.0,-999,-99.99,,,-99.99,,2013-04-03 08:04:00,
2013-04-03 03:12:00,29.0,-99.9,30.34,NW,306,4.0,9.0,-999,-99.99,,,-99.99,,2013-04-03 08:12:00,
2013-04-03 03:22:00,29.0,-99.9,30.34,NW,306,4.0,9.0,-999,-99.99,,,-99.99,,2013-04-03 08:22:00,
2013-04-03 03:33:00,29.0,-99.9,30.34,NW,306,4.0,9.0,-999,-99.99,,,-99.99,,2013-04-03 08:33:00,
2013-04-03 03:40:00,28.0,-99.9,30.35,NW,307,6.0,9.0,-999,-99.99,,,-99.99,,2013-04-03 08:40:00,
2013-04-03 04:02:00,28.0,-99.9,-100.00,NW,307,6.0,9.0,-999,-99.99,,,-99.99,,2013-04-03 09:02:00,
2013-04-03 04:12:00,28.0,-99.9,30.35,NW,307,6.0,9.0,-999,-99.99,,,-99.99,,2013-04-03 09:12:00,
2013-04-03 04:22:00,28.0,-99.9,30.35,NW,307,6.0,9.0,-999,-99.99,,,-99.99,,2013-04-03 09:22:00,
2013-04-03 04:33:00,28.0,-99.9,30.35,NW,307,6.0,9.0,-999,-99.99,,,-99.99,,2013-04-03 09:33:00,
2013-04-03 04:40:00,27.0,-99.9,30.37,NW,305,6.0,9.0,-999,-99.99,,,-99.99,,2013-04-03 09:40:00,
2013-04-03 05:03:00,27.0,-99.9,-100.00,NW,305,6.0,9.0,-999,-99.99,,,-99.99,,2013-04-03 10:03:00,
2013-04-03 05:13:00,27.0,-99.9,30.37,NW,305,6.0,9.0,-999,-99.99,,,-99.99,,2013-04-03 10:13:00,
2013-04-03 05:22:00,27.0,-99.9,30.37,NW,305,6.0,9.0,-999,-99.99,,,-99.99,,2013-04-03 10:22:00,
2013-04-03 05:33:00,27.0,-99.9,30.37,NW,305,6.0,9.0,-999,-99.99,,,-99.99,,2013-04-03 10:33:00,
2013-04-03 05:40:00,27.0,-99.9,30.37,NW,322,6.0,9.0,-999,-99.99,,,-99.99,,2013-04-03 10:40:00,
2013-04-03 06:03:00,27.0,-99.9,-100.00,NW,322,6.0,9.0,-999,-99.99,,,-99.99,,2013-04-03 11:03:00,
2013-04-03 06:12:00,27.0,-99.9,30.37,NW,322,6.0,9.0,-999,-99.99,,,-99.99,,2013-04-03 11:12:00,
2013-04-03 06:23:00,27.0,-99.9,30.37,NW,322,6.0,9.0,-999,-99.99,,,-99.99,,2013-04-03 11:23:00,
2013-04-03 06:33:00,27.0,-99.9,30.37,NW,322,6.0,9.0,-999,-99.99,,,-99.99,,2013-04-03 11:33:00,
2013-04-03 06:40:00,26.0,-99.9,30.40,WNW,297,6.0,8.0,-999,-99.99,,,-99.99,,2013-04-03 11:40:00,
2013-04-03 07:02:00,26.0,-99.9,-100.00,WNW,297,6.0,8.0,-999,-99.99,,,-99.99,,2013-04-03 12:02:00,
2013-04-03 07:13:00,26.0,-99.9,30.40,WNW,297,6.0,8.0,-999,-99.99,,,-99.99,,2013-04-03 12:13:00,
2013-04-03 07:22:00,26.0,-99.9,30.40,WNW,297,6.0,8.0,-999,-99.99,,,-99.99,,2013-04-03 12:22:00,
2013-04-03 07:33:00,26.0,-99.9,30.40,WNW,297,6.0,8.0,-999,-99.99,,,-99.99,,2013-04-03 12:33:00,
2013-04-03 07:40:00,29.0,-99.9,30.42,NW,320,6.0,8.0,-999,-99.99,,,-99.99,,2013-04-03 12:40:00,
2013-04-03 08:03:00,29.0,-99.9,-100.00,NW,320,6.0,8.0,-999,-99.99,,,-99.99,,2013-04-03 13:03:00,
2013-04-03 08:13:00,29.0,-99.9,30.42,NW,320,6.0,8.0,-999,-99.99,,,-99.99,,2013-04-03 13:13:00,
2013-04-03 08:22:00,29.0,-99.9,30.42,NW,320,6.0,8.0,-999,-99.99,,,-99.99,,2013-04-03 13:22:00,
2013-04-03 08:32:00,29.0,-99.9,30.42,NW,320,6.0,8.0,-999,-99.99,,,-99.99,,2013-04-03 13:32:00,
2013-04-03 08:40:00,32.0,-99.9,30.45,NNW,327,5.0,9.0,-999,-99.99,,,-99.99,,2013-04-03 13:40:00,
2013-04-03 09:03:00,32.0,-99.9,-100.00,NNW,327,5.0,9.0,-999,-99.99,,,-99.99,,2013-04-03 14:03:00,
2013-04-03 09:13:00,32.0,-99.9,30.45,NNW,327,5.0,9.0,-999,-99.99,,,-99.99,,2013-04-03 14:13:00,
2013-04-03 09:22:00,32.0,-99.9,30.45,NNW,327,5.0,9.0,-999,-99.99,,,-99.99,,2013-04-03 14:22:00,
2013-04-03 09:32:00,32.0,-99.9,30.45,NNW,327,5.0,9.0,-999,-99.99,,,-99.99,,2013-04-03 14:32:00,
2013-04-03 09:40:00,35.0,-99.9,30.46,West,277,6.0,10.0,-999,-99.99,,,-99.99,,2013-04-03 14:40:00,
2013-04-03 10:03:00,35.0,-99.9,-100.00,West,277,6.0,10.0,-999,-99.99,,,-99.99,,2013-04-03 15:03:00,
2013-04-03 10:13:00,35.0,-99.9,30.46,West,277,6.0,10.0,-999,-99.99,,,-99.99,,2013-04-03 15:13:00,
2013-04-03 10:24:00,35.0,-99.9,30.46,West,277,6.0,10.0,-999,-99.99,,,-99.99,,2013-04-03 15:24:00,
2013-04-03 10:33:00,35.0,-99.9,30.46,West,277,6.0,10.0,-999,-99.99,,,-99.99,,2013-04-03 15:33:00,
2013-04-03 10:40:00,35.0,-99.9,30.48,East,88,7.0,9.0,-999,-99.99,,,-99.99,,2013-04-03 15:40:00,
2013-04-03 11:04:00,35.0,-99.9,-100.00,East,88,7.0,9.0,-999,-99.99,,,-99.99,,2013-04-03 16:04:00,
2013-04-03 11:13:00,35.0,-99.9,30.48,East,88,7.0,9.0,-999,-99.99,,,-99.99,,2013-04-03 16:13:00,
2013-04-03 11:25:00,35.0,-99.9,30.48,East,88,7.0,9.0,-999,-99.99,,,-99.99,,2013-04-03 16:25:00,
2013-04-03 11:33:00,35.0,-99.9,30.48,East,88,7.0,9.0,-999,-99.99,,,-99.99,,2013-04-03 16:33:00,
2013-04-03 11:40:00,35.0,-99.9,30.47,East,82,10.0,12.0,-999,-99.99,,,-99.99,,2013-04-03 16:40:00,
2013-04-03 12:03:00,35.0,-99.9,-100.00,East,82,10.0,12.0,-999,-99.99,,,-99.99,,2013-04-03 17:03:00,
2013-04-03 12:14:00,35.0,-99.9,30.47,East,82,10.0,12.0,-999,-99.99,,,-99.99,,2013-04-03 17:14:00,
2013-04-03 12:23:00,35.0,-99.9,30.47,East,82,10.0,12.0,-999,-99.99,,,-99.99,,2013-04-03 17:23:00,
2013-04-03 12:35:00,35.0,-99.9,30.47,East,82,10.0,12.0,-999,-99.99,,,-99.99,,2013-04-03 17:35:00,
2013-04-03 12:54:00,34.0,-99.9,-100.00,ENE,76,12.0,27.0,-999,-99.99,,,-99.99,,2013-04-03 17:54:00,
2013-04-03 13:03:00,34.0,-99.9,-100.00,ENE,74,11.0,15.0,-999,-99.99,,,-99.99,,2013-04-03 18:03:00,
2013-04-03 13:13:00,34.0,-99.9,30.43,ENE,74,11.0,15.0,-999,-99.99,,,-99.99,,2013-04-03 18:13:00,
2013-04-03 13:23:00,34.0,-99.9,30.44,ENE,76,12.0,27.0,-999,-99.99,,,-99.99,,2013-04-03 18:23:00,
2013-04-03 13:35:00,34.0,-99.9,30.44,ENE,76,12.0,27.0,-999,-99.99,,,-99.99,,2013-04-03 18:35:00,
2013-04-03 13:40:00,35.0,-99.9,30.42,East,94,10.0,11.0,-999,-99.99,,,-99.99,,2013-04-03 18:40:00,
2013-04-03 13:43:00,34.0,-99.9,30.44,ENE,76,12.0,27.0,-999,-99.99,,,-99.99,,2013-04-03 18:43:00,
2013-04-03 13:52:00,34.0,-99.9,30.44,ENE,76,12.0,27.0,-999,-99.99,,,-99.99,,2013-04-03 18:52:00,
2013-04-03 14:04:00,35.0,-99.9,-100.00,East,94,10.0,11.0,-999,-99.99,,,-99.99,,2013-04-03 19:04:00,
2013-04-03 14:13:00,35.0,-99.9,30.42,East,94,10.0,11.0,-999,-99.99,,,-99.99,,2013-04-03 19:13:00,
2013-04-03 14:22:00,35.0,-99.9,30.42,East,94,10.0,11.0,-999,-99.99,,,-99.99,,2013-04-03 19:22:00,
2013-04-03 14:33:00,35.0,-99.9,30.42,East,94,10.0,11.0,-999,-99.99,,,-99.99,,2013-04-03 19:33:00,
2013-04-03 14:40:00,35.0,-99.9,30.43,ESE,109,9.0,11.0,-999,-99.99,,,-99.99,,2013-04-03 19:40:00,
2013-04-03 15:03:00,35.0,-99.9,-100.00,ESE,109,9.0,11.0,-999,-99.99,,,-99.99,,2013-04-03 20:03:00,
2013-04-03 15:13:00,35.0,-99.9,30.43,ESE,109,9.0,11.0,-999,-99.99,,,-99.99,,2013-04-03 20:13:00,
2013-04-03 15:23:00,35.0,-99.9,30.43,ESE,109,9.0,11.0,-999,-99.99,,,-99.99,,2013-04-03 20:23:00,
2013-04-03 15:33:00,35.0,-99.9,30.43,ESE,109,9.0,11.0,-999,-99.99,,,-99.99,,2013-04-03 20:33:00,
2013-04-03 15:40:00,35.0,-99.9,30.41,SE,125,10.0,12.0,-999,-99.99,,,-99.99,,2013-04-03 20:40:00,
2013-04-03 16:03:00,35.0,-99.9,-100.00,SE,125,10.0,12.0,-999,-99.99,,,-99.99,,2013-04-03 21:03:00,
2013-04-03 16:12:00,35.0,-99.9,-100.00,SE,125,10.0,12.0,-999,-99.99,,,-99.99,,2013-04-03 21:12:00,
2013-04-03 16:22:00,35.0,-99.9,30.41,SE,125,10.0,12.0,-999,-99.99,,,-99.99,,2013-04-03 21:22:00,
2013-04-03 16:33:00,35.0,-99.9,30.41,SE,125,10.0,12.0,-999,-99.99,,,-99.99,,2013-04-03 21:33:00,
2013-04-03 18:40:00,34.0,-99.9,30.37,SSE,167,12.0,15.0,-999,-99.99,,,-99.99,,2013-04-03 23:40:00,
2013-04-03 19:03:00,34.0,-99.9,-100.00,SSE,167,12.0,15.0,-999,-99.99,,,-99.99,,2013-04-04 00:03:00,
2013-04-03 19:12:00,34.0,-99.9,30.37,SSE,167,12.0,15.0,-999,-99.99,,,-99.99,,2013-04-04 00:12:00,
2013-04-03 19:22:00,34.0,-99.9,30.37,SSE,167,12.0,15.0,-999,-99.99,,,-99.99,,2013-04-04 00:22:00,
2013-04-03 19:32:00,34.0,-99.9,30.37,SSE,167,12.0,15.0,-999,-99.99,,,-99.99,,2013-04-04 00:32:00,
2013-04-03 19:40:00,34.0,-99.9,30.35,South,177,11.0,15.0,-999,-99.99,,,-99.99,,2013-04-04 00:40:00,
2013-04-03 20:03:00,34.0,-99.9,-100.00,South,177,11.0,15.0,-999,-99.99,,,-99.99,,2013-04-04 01:03:00,
2013-04-03 20:12:00,34.0,-99.9,30.35,South,177,11.0,15.0,-999,-99.99,,,-99.99,,2013-04-04 01:12:00,
2013-04-03 20:22:00,34.0,-99.9,30.35,South,177,11.0,15.0,-999,-99.99,,,-99.99,,2013-04-04 01:22:00,
2013-04-03 20:32:00,34.0,-99.9,30.35,South,177,11.0,15.0,-999,-99.99,,,-99.99,,2013-04-04 01:32:00,
2013-04-03 20:40:00,34.0,-99.9,30.35,South,175,13.0,17.0,-999,-99.99,,,-99.99,,2013-04-04 01:40:00,
2013-04-03 21:02:00,34.0,-99.9,-100.00,South,175,13.0,17.0,-999,-99.99,,,-99.99,,2013-04-04 02:02:00,
2013-04-03 21:12:00,34.0,-99.9,30.35,South,175,13.0,17.0,-999,-99.99,,,-99.99,,2013-04-04 02:12:00,
2013-04-03 21:22:00,34.0,-99.9,30.35,South,175,13.0,17.0,-999,-99.99,,,-99.99,,2013-04-04 02:22:00,
2013-04-03 21:32:00,34.0,-99.9,30.35,South,175,13.0,17.0,-999,-99.99,,,-99.99,,2013-04-04 02:32:00,
2013-04-03 21:40:00,34.0,-99.9,30.34,SSW,213,9.0,19.0,-999,-99.99,,,-99.99,,2013-04-04 02:40:00,
2013-04-03 22:02:00,34.0,-99.9,-100.00,SSW,213,9.0,19.0,-999,-99.99,,,-99.99,,2013-04-04 03:02:00,
2013-04-03 22:12:00,34.0,-99.9,30.34,SSW,213,9.0,19.0,-999,-99.99,,,-99.99,,2013-04-04 03:12:00,
2013-04-03 22:23:00,34.0,-99.9,30.34,SSW,213,9.0,19.0,-999,-99.99,,,-99.99,,2013-04-04 03:23:00,
2013-04-03 22:34:00,34.0,-99.9,30.34,SSW,213,9.0,19.0,-999,-99.99,,,-99.99,,2013-04-04 03:34:00,
2013-04-03 22:40:00,32.0,-99.9,30.32,SSW,206,9.0,13.0,-999,-99.99,,,-99.99,,2013-04-04 03:40:00,
2013-04-03 23:03:00,32.0,-99.9,-100.00,SSW,206,9.0,13.0,-999,-99.99,,,-99.99,,2013-04-04 04:03:00,
2013-04-03 23:13:00,32.0,-99.9,30.32,SSW,206,9.0,13.0,-999,-99.99,,,-99.99,,2013-04-04 04:13:00,
2013-04-03 23:23:00,32.0,-99.9,30.32,SSW,206,9.0,13.0,-999,-99.99,,,-99.99,,2013-04-04 04:23:00,
2013-04-03 23:34:00,32.0,-99.9,30.32,SSW,206,9.0,13.0,-999,-99.99,,,-99.99,,2013-04-04 04:34:00,
2013-04-03 23:40:00,31.0,-99.9,30.31,SW,232,3.0,8.0,-999,-99.99,,,-99.99,,2013-04-04 04:40:00,